Time;durP1;ratioP1;P1;durP2;ratioP2;P2;SDS_P1;SDS_P2;PMS_P1;PMS_P2;Temp;Humidity;BMP_temperature;BMP_pressure;BME280_temperature;BME280_humidity;BME280_pressure;Samples;Min_cycle;Max_cycle;Signal;HPM_P1;HPM_P2
2022/03/15 00:01:22;;;;;;;;;;;11.10;92.70;;;;;;4344546;33;43859;-83
2022/03/15 00:03:49;;;;;;;;;;;11.10;92.80;;;;;;4344208;33;45604;-83
2022/03/15 00:06:16;;;;;;;;;;;11.10;92.90;;;;;;4344955;33;43200;-83
2022/03/15 00:08:44;;;;;;;;;;;11.10;92.90;;;;;;4344220;33;43290;-83
2022/03/15 00:11:12;;;;;;;;;;;11.10;92.90;;;;;;4344005;33;43506;-83
2022/03/15 00:13:39;;;;;;;;;;;11.10;92.90;;;;;;4344788;33;44280;-83
2022/03/15 00:16:07;;;;;;;;;;;11.10;92.80;;;;;;4343584;33;43600;-82
2022/03/15 00:18:34;;;;;;;;;;;11.10;92.90;;;;;;4344557;33;43353;-82
2022/03/15 00:21:03;;;;;;;;;;;11.10;92.70;;;;;;4343514;33;44083;-83
2022/03/15 00:23:31;;;;;;;;;;;11.00;92.80;;;;;;4343970;33;44210;-84
2022/03/15 00:26:00;;;;;;;;;;;11.00;92.90;;;;;;4343415;33;43866;-82
2022/03/15 00:28:28;;;;;;;;;;;11.00;92.90;;;;;;4343918;33;42856;-83
2022/03/15 00:30:55;;;;;;;;;;;11.00;92.90;;;;;;4343709;33;43087;-83
2022/03/15 00:33:25;;;;;;;;;;;11.00;92.90;;;;;;4343871;33;43997;-82
2022/03/15 00:35:53;;;;;;;;;;;11.00;93.00;;;;;;4343776;33;44215;-82
2022/03/15 00:38:21;;;;;;;;;;;11.00;93.20;;;;;;4343792;33;44020;-83
2022/03/15 00:40:49;;;;;;;;;;;11.00;92.70;;;;;;4343369;33;43778;-82
2022/03/15 00:43:16;;;;;;;;;;;11.00;92.90;;;;;;4343524;33;44538;-82
2022/03/15 00:45:43;;;;;;;;;;;11.00;93.00;;;;;;4344704;33;44274;-82
2022/03/15 00:48:10;;;;;;;;;;;11.00;92.80;;;;;;4344785;33;44528;-82
2022/03/15 00:50:40;;;;;;;;;;;10.90;93.00;;;;;;4345333;33;42633;-82
2022/03/15 00:53:08;;;;;;;;;;;10.90;92.90;;;;;;4346334;33;44066;-83
2022/03/15 00:55:36;;;;;;;;;;;10.90;92.80;;;;;;4346191;33;43750;-83
2022/03/15 00:58:05;;;;;;;;;;;10.90;93.00;;;;;;4347358;33;43018;-84
2022/03/15 01:00:33;;;;;;;;;;;10.90;93.20;;;;;;4346362;33;43508;-82
2022/03/15 01:03:00;;;;;;;;;;;10.90;93.10;;;;;;4347162;33;44267;-82
2022/03/15 01:05:27;;;;;;;;;;;10.90;93.20;;;;;;4346339;33;43518;-83
2022/03/15 01:07:54;;;;;;;;;;;10.90;93.30;;;;;;4345875;33;43405;-83
2022/03/15 01:10:21;;;;;;;;;;;10.90;93.20;;;;;;4345825;33;43010;-82
2022/03/15 01:12:49;;;;;;;;;;;10.90;93.10;;;;;;4345886;33;44273;-82
2022/03/15 01:15:16;;;;;;;;;;;10.80;93.20;;;;;;4346225;33;43851;-82
2022/03/15 01:17:43;;;;;;;;;;;10.80;93.20;;;;;;4346733;33;43918;-82
2022/03/15 01:20:10;;;;;;;;;;;10.80;93.20;;;;;;4346175;33;43879;-83
2022/03/15 01:22:37;;;;;;;;;;;10.80;93.20;;;;;;4345894;33;43367;-82
2022/03/15 01:25:05;;;;;;;;;;;10.80;93.10;;;;;;4345782;33;42450;-82
2022/03/15 01:27:32;;;;;;;;;;;10.80;93.30;;;;;;4347118;33;43470;-82
2022/03/15 01:29:59;;;;;;;;;;;10.80;93.40;;;;;;4347089;33;44219;-82
2022/03/15 01:32:26;;;;;;;;;;;10.80;93.40;;;;;;4345664;33;43863;-81
2022/03/15 01:34:53;;;;;;;;;;;10.80;93.40;;;;;;4345997;33;43895;-82
2022/03/15 01:37:20;;;;;;;;;;;10.80;93.40;;;;;;4345613;33;42623;-82
2022/03/15 01:39:47;;;;;;;;;;;10.80;93.40;;;;;;4346727;33;43272;-82
2022/03/15 01:42:14;;;;;;;;;;;10.80;93.20;;;;;;4345571;33;43840;-83
2022/03/15 01:44:45;;;;;;;;;;;10.80;93.40;;;;;;4345743;33;45349;-83
2022/03/15 01:47:13;;;;;;;;;;;10.80;93.40;;;;;;4346803;33;43557;-83
2022/03/15 01:49:40;;;;;;;;;;;10.80;93.40;;;;;;4346276;33;44187;-82
2022/03/15 01:52:12;;;;;;;;;;;10.80;93.30;;;;;;4346437;33;43206;-82
2022/03/15 01:54:40;;;;;;;;;;;10.70;93.40;;;;;;4346262;33;43740;-82
2022/03/15 01:57:08;;;;;;;;;;;10.70;93.20;;;;;;4345453;33;45286;-82
2022/03/15 01:59:36;;;;;;;;;;;10.70;93.40;;;;;;4346565;32;43951;-82
2022/03/15 02:02:04;;;;;;;;;;;10.70;93.40;;;;;;4346010;33;43484;-82
2022/03/15 02:04:32;;;;;;;;;;;10.70;93.60;;;;;;4345549;33;42853;-82
2022/03/15 02:07:09;;;;;;;;;;;10.70;93.40;;;;;;4345561;33;45040;-82
2022/03/15 02:09:37;;;;;;;;;;;10.60;93.60;;;;;;4345384;33;43652;-83
2022/03/15 02:12:04;;;;;;;;;;;10.60;93.60;;;;;;4344999;33;44013;-84
2022/03/15 02:14:31;;;;;;;;;;;10.70;93.60;;;;;;4345375;33;43159;-83
2022/03/15 02:16:58;;;;;;;;;;;10.60;93.60;;;;;;4345976;33;44022;-83
2022/03/15 02:19:27;;;;;;;;;;;10.60;93.50;;;;;;4346054;33;42022;-82
2022/03/15 02:21:57;;;;;;;;;;;10.60;93.50;;;;;;4345075;33;43884;-83
2022/03/15 02:24:24;;;;;;;;;;;10.60;93.60;;;;;;4345203;33;44216;-82
2022/03/15 02:26:51;;;;;;;;;;;10.60;93.80;;;;;;4345759;33;43289;-83
2022/03/15 02:29:19;;;;;;;;;;;10.60;93.80;;;;;;4344628;33;42675;-82
2022/03/15 02:31:47;;;;;;;;;;;10.60;93.70;;;;;;4344994;33;43034;-83
2022/03/15 02:34:16;;;;;;;;;;;10.60;93.60;;;;;;4345690;33;42776;-83
2022/03/15 02:36:44;;;;;;;;;;;10.60;93.70;;;;;;4345139;33;45861;-83
2022/03/15 02:39:12;;;;;;;;;;;10.60;93.80;;;;;;4346012;33;43898;-82
2022/03/15 02:41:39;;;;;;;;;;;10.60;93.80;;;;;;4345588;33;44138;-83
2022/03/15 02:44:06;;;;;;;;;;;10.60;93.90;;;;;;4345563;33;42491;-82
2022/03/15 02:46:34;;;;;;;;;;;10.60;93.80;;;;;;4344557;33;43079;-82
2022/03/15 02:49:02;;;;;;;;;;;10.50;93.80;;;;;;4344384;33;44129;-82
2022/03/15 02:51:31;;;;;;;;;;;10.50;93.80;;;;;;4345799;33;44171;-83
2022/03/15 02:54:08;;;;;;;;;;;10.50;93.80;;;;;;4346037;33;44009;-82
2022/03/15 02:56:38;;;;;;;;;;;10.50;93.80;;;;;;4344882;33;43728;-83
2022/03/15 02:59:05;;;;;;;;;;;10.50;93.80;;;;;;4345435;33;42770;-83
2022/03/15 03:01:32;;;;;;;;;;;10.50;93.90;;;;;;4344125;33;43277;-83
2022/03/15 03:04:00;;;;;;;;;;;10.50;93.80;;;;;;4344809;33;44494;-83
2022/03/15 03:06:27;;;;;;;;;;;10.50;93.90;;;;;;4344264;33;43482;-82
2022/03/15 03:08:54;;;;;;;;;;;10.50;93.90;;;;;;4344459;33;45229;-83
2022/03/15 03:11:21;;;;;;;;;;;10.50;93.90;;;;;;4344295;33;43230;-83
2022/03/15 03:13:48;;;;;;;;;;;10.40;93.90;;;;;;4345093;33;43495;-82
2022/03/15 03:16:16;;;;;;;;;;;10.40;93.90;;;;;;4344497;33;42556;-82
2022/03/15 03:18:43;;;;;;;;;;;10.40;93.80;;;;;;4345382;33;42286;-83
2022/03/15 03:21:12;;;;;;;;;;;10.40;94.00;;;;;;4344053;33;42799;-83
2022/03/15 03:23:39;;;;;;;;;;;10.40;94.30;;;;;;4344614;33;44863;-83
2022/03/15 03:26:06;;;;;;;;;;;10.40;93.90;;;;;;4344107;33;45090;-83
2022/03/15 03:28:39;;;;;;;;;;;10.40;94.00;;;;;;4345072;33;43935;-82
2022/03/15 03:31:08;;;;;;;;;;;10.40;94.00;;;;;;4344476;33;43608;-83
2022/03/15 03:33:36;;;;;;;;;;;10.30;94.00;;;;;;4345394;33;44105;-82
2022/03/15 03:36:03;;;;;;;;;;;10.30;93.90;;;;;;4343835;33;42509;-83
2022/03/15 03:38:31;;;;;;;;;;;10.30;94.00;;;;;;4344291;33;43000;-82
2022/03/15 03:40:58;;;;;;;;;;;10.30;94.00;;;;;;4345313;33;44686;-83
2022/03/15 03:43:25;;;;;;;;;;;10.30;94.00;;;;;;4343807;33;45869;-82
2022/03/15 03:45:52;;;;;;;;;;;10.30;94.10;;;;;;4344120;33;43938;-83
2022/03/15 03:48:19;;;;;;;;;;;10.30;94.10;;;;;;4344870;33;43374;-83
2022/03/15 03:50:47;;;;;;;;;;;10.30;94.10;;;;;;4343920;33;42587;-83
2022/03/15 03:53:16;;;;;;;;;;;10.30;94.20;;;;;;4344993;33;44663;-82
2022/03/15 03:55:43;;;;;;;;;;;10.30;94.10;;;;;;4344742;33;43454;-82
2022/03/15 03:58:10;;;;;;;;;;;10.30;94.10;;;;;;4344277;33;43582;-82
2022/03/15 04:00:37;;;;;;;;;;;10.30;94.20;;;;;;4343936;33;43518;-83
2022/03/15 04:03:05;;;;;;;;;;;10.30;94.10;;;;;;4343517;33;43343;-83
2022/03/15 04:05:35;;;;;;;;;;;10.30;94.20;;;;;;4343678;33;45998;-82
2022/03/15 04:08:02;;;;;;;;;;;10.30;94.30;;;;;;4344859;33;43485;-83
2022/03/15 04:10:34;;;;;;;;;;;10.30;94.20;;;;;;4343946;33;43956;-82
2022/03/15 04:13:02;;;;;;;;;;;10.30;94.20;;;;;;4343604;33;44238;-83
2022/03/15 04:15:31;;;;;;;;;;;10.30;94.20;;;;;;4343644;33;43774;-83
2022/03/15 04:17:59;;;;;;;;;;;10.30;94.20;;;;;;4344081;33;43674;-83
2022/03/15 04:20:26;;;;;;;;;;;10.20;94.20;;;;;;4345075;33;45924;-83
2022/03/15 04:22:53;;;;;;;;;;;10.20;94.30;;;;;;4343783;33;43339;-83
2022/03/15 04:25:22;;;;;;;;;;;10.20;94.20;;;;;;4347511;33;43769;-82
2022/03/15 04:27:49;;;;;;;;;;;10.20;94.30;;;;;;4347513;33;44108;-82
2022/03/15 04:30:16;;;;;;;;;;;10.20;94.30;;;;;;4346835;33;42929;-83
2022/03/15 04:32:43;;;;;;;;;;;10.20;94.30;;;;;;4347511;33;44088;-83
2022/03/15 04:35:10;;;;;;;;;;;10.20;94.40;;;;;;4347678;33;43037;-83
2022/03/15 04:37:37;;;;;;;;;;;10.20;94.40;;;;;;4347465;33;43148;-83
2022/03/15 04:40:07;;;;;;;;;;;10.20;94.50;;;;;;4346240;33;43486;-83
2022/03/15 04:42:37;;;;;;;;;;;10.20;94.50;;;;;;4348093;33;42794;-82
2022/03/15 04:45:04;;;;;;;;;;;10.20;94.50;;;;;;4346576;33;43773;-83
2022/03/15 04:47:31;;;;;;;;;;;10.20;94.40;;;;;;4346610;33;44240;-83
2022/03/15 04:49:58;;;;;;;;;;;10.10;94.30;;;;;;4346097;33;42862;-83
2022/03/15 04:52:25;;;;;;;;;;;10.20;94.30;;;;;;4346460;33;44702;-83
2022/03/15 04:54:52;;;;;;;;;;;10.10;94.20;;;;;;4347378;33;43189;-83
2022/03/15 04:57:19;;;;;;;;;;;10.20;94.20;;;;;;4347551;33;43211;-82
2022/03/15 04:59:46;;;;;;;;;;;10.10;94.30;;;;;;4346317;33;42469;-83
2022/03/15 05:02:13;;;;;;;;;;;10.10;94.20;;;;;;4345869;33;44180;-83
2022/03/15 05:04:40;;;;;;;;;;;10.20;94.20;;;;;;4347031;33;43289;-83
2022/03/15 05:07:07;;;;;;;;;;;10.20;94.10;;;;;;4346462;33;44243;-82
2022/03/15 05:11:05;;;;;;;;;;;10.20;94.20;;;;;;4346336;33;26755;-83
2022/03/15 05:12:22;;;;;;;;;;;10.20;94.30;;;;;;4346949;33;43808;-82
2022/03/15 05:14:49;;;;;;;;;;;10.20;94.10;;;;;;4346781;33;44272;-83
2022/03/15 05:17:16;;;;;;;;;;;10.10;94.20;;;;;;4346904;33;42193;-83
2022/03/15 05:19:44;;;;;;;;;;;10.10;94.10;;;;;;4345563;33;44802;-82
2022/03/15 05:22:11;;;;;;;;;;;10.10;94.10;;;;;;4345641;33;43337;-83
2022/03/15 05:24:38;;;;;;;;;;;10.10;94.10;;;;;;4347161;33;43216;-83
2022/03/15 05:27:05;;;;;;;;;;;10.10;94.10;;;;;;4345935;33;43183;-83
2022/03/15 05:29:32;;;;;;;;;;;10.10;94.10;;;;;;4345890;33;43850;-83
2022/03/15 05:31:59;;;;;;;;;;;10.10;94.10;;;;;;4346801;33;45299;-83
2022/03/15 05:34:26;;;;;;;;;;;10.10;94.30;;;;;;4346956;33;44481;-82
2022/03/15 05:36:53;;;;;;;;;;;10.10;94.10;;;;;;4345408;33;43484;-82
2022/03/15 05:39:20;;;;;;;;;;;10.10;94.00;;;;;;4345755;33;43165;-83
2022/03/15 05:41:48;;;;;;;;;;;10.10;94.00;;;;;;4346514;33;42332;-83
2022/03/15 05:44:15;;;;;;;;;;;10.10;94.10;;;;;;4346583;33;43810;-83
2022/03/15 05:46:42;;;;;;;;;;;10.10;94.00;;;;;;4346636;33;43405;-82
2022/03/15 05:49:09;;;;;;;;;;;10.10;94.10;;;;;;4346729;33;43282;-82
2022/03/15 05:51:37;;;;;;;;;;;10.10;94.10;;;;;;4346905;33;43514;-83
2022/03/15 05:54:05;;;;;;;;;;;10.10;93.90;;;;;;4345439;33;44222;-83
2022/03/15 05:56:34;;;;;;;;;;;10.10;94.00;;;;;;4345673;33;43564;-82
2022/03/15 05:59:01;;;;;;;;;;;10.10;94.10;;;;;;4345213;33;43434;-82
2022/03/15 06:01:28;;;;;;;;;;;10.10;94.10;;;;;;4346133;33;43203;-82
2022/03/15 06:04:00;;;;;;;;;;;10.20;94.00;;;;;;4345673;33;43954;-82
2022/03/15 06:06:27;;;;;;;;;;;10.10;94.00;;;;;;4345373;33;43549;-83
2022/03/15 06:08:54;;;;;;;;;;;10.10;93.90;;;;;;4345496;33;43928;-82
2022/03/15 06:11:21;;;;;;;;;;;10.10;94.10;;;;;;4345336;33;43467;-82
2022/03/15 06:13:48;;;;;;;;;;;10.10;94.00;;;;;;4346078;33;44207;-82
2022/03/15 06:16:16;;;;;;;;;;;10.10;94.10;;;;;;4344918;33;43735;-83
2022/03/15 06:18:43;;;;;;;;;;;10.10;94.10;;;;;;4345041;33;43769;-82
2022/03/15 06:21:10;;;;;;;;;;;10.10;94.10;;;;;;4345969;33;43756;-82
2022/03/15 06:23:38;;;;;;;;;;;10.10;94.10;;;;;;4345834;33;44017;-82
2022/03/15 06:26:25;;;;;;;;;;;10.10;94.20;;;;;;4345480;33;45611;-82
2022/03/15 06:28:53;;;;;;;;;;;10.10;94.20;;;;;;4344987;33;44235;-82
2022/03/15 06:31:20;;;;;;;;;;;10.10;94.20;;;;;;4345135;33;43838;-82
2022/03/15 06:33:47;;;;;;;;;;;10.10;94.20;;;;;;4346166;32;44677;-82
2022/03/15 06:36:15;;;;;;;;;;;10.10;94.20;;;;;;4346329;33;43790;-82
2022/03/15 06:38:45;;;;;;;;;;;10.10;94.20;;;;;;4345932;33;43486;-82
2022/03/15 06:41:12;;;;;;;;;;;10.10;94.30;;;;;;4344993;33;43964;-83
2022/03/15 06:43:40;;;;;;;;;;;10.10;94.40;;;;;;4344849;33;45731;-83
2022/03/15 06:46:10;;;;;;;;;;;10.10;94.30;;;;;;4345613;33;42160;-83
2022/03/15 06:48:37;;;;;;;;;;;10.10;94.50;;;;;;4345498;33;43672;-82
2022/03/15 06:51:04;;;;;;;;;;;10.10;94.60;;;;;;4344461;33;45842;-82
2022/03/15 06:53:32;;;;;;;;;;;10.10;94.20;;;;;;4345699;33;43556;-82
2022/03/15 06:55:59;;;;;;;;;;;10.10;94.40;;;;;;4345420;33;43048;-82
2022/03/15 06:58:26;;;;;;;;;;;10.10;94.30;;;;;;4345735;33;42667;-82
2022/03/15 07:00:55;;;;;;;;;;;10.10;94.40;;;;;;4345138;33;42927;-83
2022/03/15 07:03:22;;;;;;;;;;;10.10;94.30;;;;;;4344219;33;44620;-83
2022/03/15 07:05:49;;;;;;;;;;;10.10;94.40;;;;;;4344233;33;43925;-82
2022/03/15 07:08:16;;;;;;;;;;;10.10;94.40;;;;;;4344615;33;44866;-82
2022/03/15 07:10:43;;;;;;;;;;;10.10;94.50;;;;;;4345722;33;44085;-82
2022/03/15 07:13:10;;;;;;;;;;;10.10;94.60;;;;;;4345748;33;43349;-82
2022/03/15 07:15:38;;;;;;;;;;;10.10;94.60;;;;;;4344014;33;44127;-82
2022/03/15 07:18:05;;;;;;;;;;;10.20;94.60;;;;;;4345213;33;43298;-82
2022/03/15 07:20:32;;;;;;;;;;;10.10;94.60;;;;;;4343980;33;43846;-82
2022/03/15 07:22:59;;;;;;;;;;;10.10;94.70;;;;;;4345057;33;43758;-82
2022/03/15 07:25:26;;;;;;;;;;;10.20;94.70;;;;;;4345129;33;43225;-82
2022/03/15 07:27:53;;;;;;;;;;;10.10;94.80;;;;;;4343942;33;43850;-82
2022/03/15 07:30:20;;;;;;;;;;;10.20;94.80;;;;;;4344997;33;44200;-83
2022/03/15 07:32:47;;;;;;;;;;;10.10;94.90;;;;;;4345909;33;43010;-83
2022/03/15 07:35:15;;;;;;;;;;;10.20;94.90;;;;;;4344176;33;42917;-82
2022/03/15 07:37:49;;;;;;;;;;;10.20;94.90;;;;;;4345253;33;42729;-82
2022/03/15 07:40:17;;;;;;;;;;;10.20;95.00;;;;;;4344264;33;43190;-81
2022/03/15 07:42:44;;;;;;;;;;;10.20;95.00;;;;;;4344877;33;42724;-81
2022/03/15 07:45:11;;;;;;;;;;;10.20;95.10;;;;;;4343974;33;43010;-82
2022/03/15 07:47:38;;;;;;;;;;;10.20;95.20;;;;;;4343883;33;44129;-82
2022/03/15 07:50:06;;;;;;;;;;;10.20;95.50;;;;;;4344270;33;44298;-82
2022/03/15 07:52:33;;;;;;;;;;;10.20;95.60;;;;;;4345069;33;44020;-82
2022/03/15 07:55:00;;;;;;;;;;;10.20;95.60;;;;;;4344215;33;43510;-82
2022/03/15 07:57:27;;;;;;;;;;;10.20;95.60;;;;;;4344280;33;43390;-83
2022/03/15 07:59:55;;;;;;;;;;;10.20;96.00;;;;;;4347018;33;42768;-82
2022/03/15 08:02:22;;;;;;;;;;;10.20;96.00;;;;;;4346585;33;43799;-82
2022/03/15 08:04:49;;;;;;;;;;;10.20;96.20;;;;;;4346699;33;44081;-82
2022/03/15 08:07:16;;;;;;;;;;;10.20;96.30;;;;;;4346936;33;46098;-82
2022/03/15 08:09:43;;;;;;;;;;;10.20;96.20;;;;;;4348129;33;43470;-82
2022/03/15 08:12:10;;;;;;;;;;;10.20;96.30;;;;;;4347120;33;43087;-82
2022/03/15 08:14:37;;;;;;;;;;;10.20;96.40;;;;;;4346797;33;43857;-82
2022/03/15 08:17:04;;;;;;;;;;;10.20;96.60;;;;;;4346538;33;44307;-82
2022/03/15 08:19:31;;;;;;;;;;;10.20;96.70;;;;;;4346892;33;43059;-82
2022/03/15 08:22:01;;;;;;;;;;;10.20;96.90;;;;;;4347004;33;43182;-81
2022/03/15 08:24:28;;;;;;;;;;;10.30;96.90;;;;;;4347502;33;42732;-82
2022/03/15 08:26:55;;;;;;;;;;;10.20;96.80;;;;;;4346585;33;44222;-82
2022/03/15 08:29:23;;;;;;;;;;;10.20;97.50;;;;;;4346510;33;43367;-82
2022/03/15 08:31:51;;;;;;;;;;;10.30;97.40;;;;;;4346393;33;43544;-81
2022/03/15 08:34:18;;;;;;;;;;;10.30;97.70;;;;;;4347746;33;43593;-81
2022/03/15 08:36:46;;;;;;;;;;;10.30;97.60;;;;;;4346701;33;44051;-82
2022/03/15 08:39:14;;;;;;;;;;;10.30;97.70;;;;;;4347773;33;43808;-82
2022/03/15 08:41:42;;;;;;;;;;;10.30;98.50;;;;;;4346160;33;42657;-82
2022/03/15 08:44:09;;;;;;;;;;;10.30;98.50;;;;;;4346431;33;42289;-83
2022/03/15 08:46:36;;;;;;;;;;;10.30;98.70;;;;;;4347493;33;44016;-82
2022/03/15 08:49:03;;;;;;;;;;;10.30;98.90;;;;;;4346453;33;44286;-83
2022/03/15 08:51:30;;;;;;;;;;;10.30;99.20;;;;;;4346552;33;44485;-83
2022/03/15 08:53:58;;;;;;;;;;;10.30;99.30;;;;;;4347028;33;44454;-83
2022/03/15 08:56:25;;;;;;;;;;;10.30;99.80;;;;;;4346059;33;44098;-82
2022/03/15 08:58:53;;;;;;;;;;;10.30;99.60;;;;;;4346520;33;43908;-83
2022/03/15 09:01:20;;;;;;;;;;;10.30;99.60;;;;;;4346281;33;44012;-82
2022/03/15 09:04:01;;;;;;;;;;;10.40;99.80;;;;;;4346622;33;43313;-82
2022/03/15 09:06:29;;;;;;;;;;;10.30;99.90;;;;;;4347635;33;44117;-82
2022/03/15 09:08:57;;;;;;;;;;;10.30;99.70;;;;;;4345918;33;42546;-82
2022/03/15 09:11:24;;;;;;;;;;;10.30;99.80;;;;;;4345479;33;42594;-82
2022/03/15 09:13:51;;;;;;;;;;;10.30;99.90;;;;;;4346116;33;42698;-81
2022/03/15 09:16:21;;;;;;;;;;;10.30;99.90;;;;;;4346829;33;44207;-81
2022/03/15 09:18:48;;;;;;;;;;;10.30;99.90;;;;;;4347222;33;43488;-81
2022/03/15 09:21:16;;;;;;;;;;;10.40;99.90;;;;;;4346969;33;43489;-81
2022/03/15 09:23:43;;;;;;;;;;;10.30;99.90;;;;;;4347222;33;43343;-81
2022/03/15 09:26:11;;;;;;;;;;;10.40;99.90;;;;;;4347082;33;43522;-81
2022/03/15 09:28:38;;;;;;;;;;;10.40;99.90;;;;;;4345952;33;42871;-81
2022/03/15 09:31:05;;;;;;;;;;;10.40;99.90;;;;;;4345956;33;43494;-81
2022/03/15 09:33:32;;;;;;;;;;;10.30;99.90;;;;;;4345552;33;43001;-82
2022/03/15 09:35:59;;;;;;;;;;;10.40;99.90;;;;;;4345641;33;42711;-81
2022/03/15 09:38:27;;;;;;;;;;;10.30;99.90;;;;;;4345510;33;43592;-81
2022/03/15 09:40:54;;;;;;;;;;;10.40;99.90;;;;;;4345322;33;43376;-80
2022/03/15 09:43:22;;;;;;;;;;;10.30;99.90;;;;;;4345674;33;43649;-80
2022/03/15 09:45:50;;;;;;;;;;;10.30;99.90;;;;;;4346413;32;45051;-80
2022/03/15 09:48:38;;;;;;;;;;;10.40;99.90;;;;;;4346966;32;45307;-80
2022/03/15 09:51:06;;;;;;;;;;;10.40;99.90;;;;;;4346780;33;44381;-81
2022/03/15 09:53:34;;;;;;;;;;;10.30;99.90;;;;;;4346812;33;43464;-81
2022/03/15 09:56:01;;;;;;;;;;;10.40;99.90;;;;;;4345771;33;43950;-81
2022/03/15 09:58:29;;;;;;;;;;;10.30;99.90;;;;;;4345523;33;46163;-82
2022/03/15 10:00:57;;;;;;;;;;;10.30;99.90;;;;;;4346291;33;44308;-82
2022/03/15 10:03:25;;;;;;;;;;;10.30;99.90;;;;;;4345280;33;44996;-81
2022/03/15 10:05:53;;;;;;;;;;;10.30;99.90;;;;;;4346136;33;43481;-81
2022/03/15 10:08:20;;;;;;;;;;;10.30;99.90;;;;;;4345343;33;43596;-81
2022/03/15 10:10:51;;;;;;;;;;;10.30;99.90;;;;;;4345119;33;43186;-81
2022/03/15 10:13:19;;;;;;;;;;;10.30;99.90;;;;;;4345471;33;44133;-81
2022/03/15 10:15:53;;;;;;;;;;;10.30;99.90;;;;;;4345955;33;44707;-81
2022/03/15 10:18:21;;;;;;;;;;;10.30;99.90;;;;;;4345506;33;44570;-81
2022/03/15 10:20:48;;;;;;;;;;;10.30;99.90;;;;;;4345030;33;45192;-81
2022/03/15 10:23:16;;;;;;;;;;;10.30;99.90;;;;;;4344762;33;43541;-82
2022/03/15 10:25:51;;;;;;;;;;;10.30;99.90;;;;;;4345069;33;42756;-82
2022/03/15 10:28:18;;;;;;;;;;;10.30;99.90;;;;;;4346418;33;44055;-82
2022/03/15 10:30:46;;;;;;;;;;;10.30;99.90;;;;;;4345331;33;44199;-82
2022/03/15 10:33:16;;;;;;;;;;;10.30;99.90;;;;;;4346324;33;43473;-80
2022/03/15 10:35:45;;;;;;;;;;;10.30;99.90;;;;;;4344571;33;45173;-81
2022/03/15 10:38:12;;;;;;;;;;;10.40;99.90;;;;;;4344649;33;43832;-82
2022/03/15 10:40:41;;;;;;;;;;;10.30;99.90;;;;;;4344556;33;43004;-82
2022/03/15 10:43:09;;;;;;;;;;;10.30;99.90;;;;;;4345691;32;45209;-81
2022/03/15 10:45:38;;;;;;;;;;;10.30;99.90;;;;;;4345558;33;44414;-81
2022/03/15 10:48:32;;;;;;;;;;;10.40;99.90;;;;;;4344977;33;44051;-82
2022/03/15 10:51:01;;;;;;;;;;;10.40;99.90;;;;;;4341910;33;44283;-82
2022/03/15 10:53:38;;;;;;;;;;;10.30;99.90;;;;;;4345798;33;43943;-84
2022/03/15 10:56:15;;;;;;;;;;;10.40;99.90;;;;;;4345957;33;44212;-81
2022/03/15 10:59:03;;;;;;;;;;;10.40;99.90;;;;;;4345425;33;43472;-82
2022/03/15 11:01:40;;;;;;;;;;;10.30;99.90;;;;;;4345388;33;43922;-82
2022/03/15 11:04:10;;;;;;;;;;;10.40;99.90;;;;;;4344286;33;43249;-81
2022/03/15 11:06:38;;;;;;;;;;;10.40;99.90;;;;;;4344438;33;43966;-82
2022/03/15 11:09:25;;;;;;;;;;;10.40;99.90;;;;;;4344139;33;45767;-81
2022/03/15 11:11:54;;;;;;;;;;;10.40;99.90;;;;;;4345227;33;21648;-82
2022/03/15 11:14:40;;;;;;;;;;;10.30;99.90;;;;;;4343996;33;44825;-82
2022/03/15 11:17:09;;;;;;;;;;;10.40;99.90;;;;;;4344580;33;44677;-81
2022/03/15 11:19:38;;;;;;;;;;;10.40;99.90;;;;;;4344338;33;43060;-82
2022/03/15 11:22:06;;;;;;;;;;;10.40;99.90;;;;;;4344371;33;45757;-82
2022/03/15 11:24:34;;;;;;;;;;;10.40;99.90;;;;;;4344206;33;43804;-82
2022/03/15 11:27:04;;;;;;;;;;;10.40;99.90;;;;;;4345086;33;42886;-82
2022/03/15 11:29:32;;;;;;;;;;;10.40;99.90;;;;;;4344569;33;44220;-81
2022/03/15 11:32:00;;;;;;;;;;;10.40;99.90;;;;;;4344243;33;43073;-81
2022/03/15 11:34:28;;;;;;;;;;;10.40;99.90;;;;;;4345186;33;44224;-81
2022/03/15 11:36:55;;;;;;;;;;;10.40;99.90;;;;;;4345008;33;42827;-82
2022/03/15 11:39:24;;;;;;;;;;;10.40;99.90;;;;;;4345513;32;45018;-81
2022/03/15 11:41:52;;;;;;;;;;;10.40;99.90;;;;;;4344274;33;44357;-81
2022/03/15 11:44:25;;;;;;;;;;;10.40;99.90;;;;;;4344817;33;43052;-81
2022/03/15 11:46:58;;;;;;;;;;;10.40;99.90;;;;;;4344168;33;43511;-81
2022/03/15 11:49:42;;;;;;;;;;;10.40;99.90;;;;;;4344432;33;43501;-82
2022/03/15 11:52:20;;;;;;;;;;;10.40;99.90;;;;;;4344301;33;42248;-81
2022/03/15 11:54:50;;;;;;;;;;;10.40;99.90;;;;;;4343744;33;44160;-81
2022/03/15 11:57:23;;;;;;;;;;;10.40;99.90;;;;;;4345074;33;44336;-81
2022/03/15 11:59:52;;;;;;;;;;;10.40;99.90;;;;;;4344169;33;44868;-81
2022/03/15 12:02:28;;;;;;;;;;;10.40;99.90;;;;;;4343353;33;44281;-82
2022/03/15 12:04:56;;;;;;;;;;;10.40;99.90;;;;;;4344053;33;43478;-81
2022/03/15 12:07:45;;;;;;;;;;;10.40;99.90;;;;;;4344965;33;43357;-82
2022/03/15 12:10:27;;;;;;;;;;;10.40;99.90;;;;;;4343843;33;42872;-82
2022/03/15 12:13:14;;;;;;;;;;;10.40;99.90;;;;;;4344573;33;20009;-81
2022/03/15 12:15:44;;;;;;;;;;;10.40;99.90;;;;;;4344030;33;44737;-82
2022/03/15 12:18:27;;;;;;;;;;;10.40;99.90;;;;;;4344078;33;43488;-81
2022/03/15 12:20:59;;;;;;;;;;;10.40;99.90;;;;;;4345146;33;43844;-82
2022/03/15 12:23:29;;;;;;;;;;;10.40;99.90;;;;;;4345125;33;42000;-81
2022/03/15 12:25:57;;;;;;;;;;;10.40;99.90;;;;;;4343788;33;42577;-81
2022/03/15 12:28:29;;;;;;;;;;;10.40;99.90;;;;;;4344639;33;43686;-81
2022/03/15 12:31:06;;;;;;;;;;;10.40;99.90;;;;;;4343850;33;43346;-81
2022/03/15 12:33:34;;;;;;;;;;;10.40;99.90;;;;;;4343377;33;45013;-82
2022/03/15 12:36:05;;;;;;;;;;;10.40;99.90;;;;;;4344530;33;42851;-80
2022/03/15 12:38:40;;;;;;;;;;;10.40;99.90;;;;;;4344106;33;43188;-81
2022/03/15 12:41:07;;;;;;;;;;;10.40;99.90;;;;;;4344039;33;46315;-81
2022/03/15 12:43:35;;;;;;;;;;;10.40;99.90;;;;;;4344950;33;19998;-82
2022/03/15 12:46:04;;;;;;;;;;;10.40;99.90;;;;;;4345624;33;42346;-81
2022/03/15 12:48:35;;;;;;;;;;;10.50;99.90;;;;;;4347423;33;43436;-80
2022/03/15 12:51:03;;;;;;;;;;;10.40;99.90;;;;;;4346458;33;42956;-81
2022/03/15 12:53:37;;;;;;;;;;;10.40;99.90;;;;;;4347516;33;43676;-81
2022/03/15 12:56:05;;;;;;;;;;;10.40;99.90;;;;;;4346601;33;45726;-81
2022/03/15 12:58:33;;;;;;;;;;;10.50;99.90;;;;;;4345995;33;44246;-82
2022/03/15 13:01:01;;;;;;;;;;;10.40;99.90;;;;;;4346195;33;43205;-82
2022/03/15 13:03:29;;;;;;;;;;;10.50;99.90;;;;;;4346920;33;43347;-82
2022/03/15 13:05:57;;;;;;;;;;;10.50;99.90;;;;;;4347246;33;44622;-82
2022/03/15 13:08:25;;;;;;;;;;;10.50;99.90;;;;;;4346328;33;43022;-81
2022/03/15 13:10:53;;;;;;;;;;;10.50;99.90;;;;;;4347499;33;43820;-82
2022/03/15 13:13:29;;;;;;;;;;;10.50;99.90;;;;;;4345759;33;46138;-81
2022/03/15 13:15:59;;;;;;;;;;;10.50;99.90;;;;;;4347862;33;20056;-82
2022/03/15 13:18:27;;;;;;;;;;;10.50;99.90;;;;;;4345731;33;45034;-82
2022/03/15 13:21:00;;;;;;;;;;;10.50;99.90;;;;;;4345724;33;42256;-82
2022/03/15 13:23:29;;;;;;;;;;;10.60;99.90;;;;;;4347184;33;44601;-82
2022/03/15 13:26:11;;;;;;;;;;;10.50;99.90;;;;;;4346625;32;45389;-82
2022/03/15 13:28:50;;;;;;;;;;;10.50;99.90;;;;;;4345986;33;44035;-82
2022/03/15 13:31:20;;;;;;;;;;;10.50;99.90;;;;;;4346116;33;45783;-82
2022/03/15 13:33:53;;;;;;;;;;;10.60;99.90;;;;;;4346568;32;45044;-82
2022/03/15 13:36:21;;;;;;;;;;;10.50;99.90;;;;;;4347281;33;44273;-80
2022/03/15 13:38:52;;;;;;;;;;;10.50;99.90;;;;;;4345818;33;42878;-83
2022/03/15 13:41:20;;;;;;;;;;;10.50;99.90;;;;;;4346591;33;43835;-81
2022/03/15 13:43:48;;;;;;;;;;;10.50;99.90;;;;;;4346007;33;45249;-81
2022/03/15 13:46:21;;;;;;;;;;;10.50;99.90;;;;;;4346510;33;20088;-81
2022/03/15 13:48:49;;;;;;;;;;;10.60;99.90;;;;;;4345451;33;44343;-81
2022/03/15 13:51:27;;;;;;;;;;;10.60;99.90;;;;;;4346867;33;44192;-81
2022/03/15 13:54:27;;;;;;;;;;;10.60;99.90;;;;;;4346753;33;44096;-81
2022/03/15 13:56:55;;;;;;;;;;;10.60;99.90;;;;;;4305916;33;43376;-81
2022/03/15 13:59:23;;;;;;;;;;;10.60;99.90;;;;;;4345650;33;43508;-81
2022/03/15 14:01:56;;;;;;;;;;;10.60;99.90;;;;;;4345334;33;43119;-81
2022/03/15 14:04:31;;;;;;;;;;;10.60;99.90;;;;;;4345587;33;44756;-82
2022/03/15 14:07:01;;;;;;;;;;;10.60;99.90;;;;;;4346740;32;45983;-82
2022/03/15 14:09:29;;;;;;;;;;;10.60;99.90;;;;;;4346215;33;43947;-82
2022/03/15 14:12:02;;;;;;;;;;;10.60;99.90;;;;;;4345118;33;42250;-82
2022/03/15 14:14:36;;;;;;;;;;;10.70;99.90;;;;;;4346165;33;42719;-81
2022/03/15 14:17:04;;;;;;;;;;;10.70;99.90;;;;;;4346405;33;20059;-81
2022/03/15 14:19:42;;;;;;;;;;;10.70;99.90;;;;;;4346235;33;45458;-81
2022/03/15 14:22:09;;;;;;;;;;;10.70;99.90;;;;;;4346404;33;44231;-81
2022/03/15 14:24:37;;;;;;;;;;;10.70;99.90;;;;;;4344954;33;42958;-81
2022/03/15 14:27:05;;;;;;;;;;;10.70;99.90;;;;;;4344822;33;44181;-81